< < Back
Terminal Aerodrome Forecast


Current Version              Previous Versions:   1  2  3  4  5  6  7  8  9  

Terminal Aerodrome Forecast

473
FTUS42 KFFC 280526
TAFPDK
TAF
KPDK 280526Z 2806/2906 VRB03KT P6SM FEW040 SCT080 BKN250
     FM281000 VRB03KT 6SM BR FEW005 SCT012 SCT120
     FM281400 33006KT P6SM SCT012 BKN040
      TEMPO 2815/2819 5SM TSRA BR BKN030CB
     FM281900 02009G18KT P6SM SCT040 BKN120
     FM290200 02004KT P6SM SCT060=

Latest METAR

199
SAUS70 KWBC 281800 RRJ
MTRPDK
METAR KPDK 281753Z 19003KT 10SM TS SCT037 SCT055 BKN080 29/22 A3000 RMK
AO2 LTG DSNT E AND SE RAB20E46 TSB51 SLP141 P0002 60002
T02890222 10317 20244 58008


USA.gov is the U.S. government's official web portal to all federal, state and local government web resources and services.